EDT,Max TemperatureF,Mean TemperatureF,Min TemperatureF,Max Dew PointF,MeanDew PointF,Min DewpointF,Max Humidity, Mean Humidity, Min Humidity, Max Sea Level PressureIn, Mean Sea Level PressureIn, Min Sea Level PressureIn, Max VisibilityMiles, Mean VisibilityMiles, Min VisibilityMiles, Max Wind SpeedMPH, Mean Wind SpeedMPH, Max Gust SpeedMPH,PrecipitationIn, CloudCover, Events, WindDirDegrees
2012-10-1,64,58,51,53,50,48,96,82,67,29.96,29.80,29.71,10,10,10,26,7,33,0.00,7,,228
2012-10-2,61,56,51,58,54,50,96,87,78,30.05,30.01,29.96,10,10,7,14,3,20,0.01,8,Rain,162
2012-10-3,69,64,59,64,61,57,100,94,87,30.13,30.07,30.03,8,3,0,7,2,23,0.06,8,Fog-Rain,19
2012-10-4,68,60,51,66,63,53,100,97,93,30.15,30.11,30.05,10,2,0,8,1,9,0.20,7,Fog-Rain,182
2012-10-5,74,64,53,62,58,53,100,79,57,30.06,30.00,29.90,10,5,0,17,4,25,0.01,6,Fog-Rain,174
2012-10-6,69,57,44,62,52,35,100,81,61,30.01,29.85,29.74,10,8,0,20,9,28,T,6,Fog-Rain,241
2012-10-7,54,49,44,44,38,34,93,74,54,30.11,30.06,30.01,10,10,8,13,5,18,0.05,6,Rain,244
2012-10-8,55,47,39,43,40,35,93,72,50,30.31,30.23,30.10,10,10,10,10,2,13,0.00,7,,275
2012-10-9,59,49,38,47,42,37,100,81,62,30.30,30.23,30.11,10,8,0,9,3,14,0.00,7,Fog,66
2012-10-10,57,51,45,55,48,37,100,86,71,30.10,29.91,29.76,10,8,1,26,7,37,0.08,7,Rain,187
2012-10-11,56,48,40,39,35,30,79,59,38,30.17,30.09,29.92,10,10,10,16,6,22,T,3,Rain,266
2012-10-12,52,42,32,43,32,19,89,63,37,30.44,30.19,30.03,10,10,2,22,10,31,0.04,4,Rain,298
2012-10-13,52,39,25,28,25,23,85,59,33,30.52,30.41,30.25,10,10,10,15,5,22,0.01,4,Rain,172
2012-10-14,66,56,45,51,46,35,93,77,60,30.19,30.03,29.85,10,9,2,20,12,29,0.42,7,Rain,171
2012-10-15,66,59,52,61,54,43,93,79,64,29.83,29.70,29.62,10,10,7,20,10,30,0.07,7,Rain,187
2012-10-16,53,44,35,42,35,32,92,71,50,29.94,29.82,29.69,10,10,10,23,12,31,0.00,5,,301
2012-10-17,61,46,31,41,35,30,100,70,39,30.03,29.98,29.93,10,8,0,6,0,8,0.00,4,Fog,87
2012-10-18,67,52,37,48,41,35,100,70,40,30.05,30.00,29.94,10,9,0,18,6,26,0.00,4,Fog,155
2012-10-19,64,59,54,63,57,49,100,86,72,29.99,29.82,29.65,10,4,1,10,3,14,2.28,8,Fog-Rain,40
2012-10-20,70,58,45,61,52,39,100,77,53,29.78,29.68,29.61,10,8,0,18,4,24,T,3,Fog-Thunderstorm,219
2012-10-21,62,51,40,44,41,38,89,68,46,29.97,29.90,29.80,10,10,10,24,9,30,0.00,5,,274
2012-10-22,64,54,44,45,43,40,80,66,51,30.07,30.02,29.97,10,10,10,23,13,32,0.00,3,,291
2012-10-23,57,49,41,50,44,39,96,81,66,30.17,30.12,30.08,10,10,7,6,1,16,T,7,Rain,291
2012-10-24,54,51,48,47,40,37,83,71,59,30.22,30.18,30.14,10,10,10,7,2,,0.00,8,,15
2012-10-25,60,56,51,52,49,44,89,81,72,30.27,30.23,30.20,10,10,9,18,8,24,0.00,8,,169
2012-10-26,63,60,56,53,52,51,80,76,72,30.23,30.18,30.13,10,10,9,14,5,20,0.00,8,,176
2012-10-27,63,57,50,54,52,49,100,84,67,30.13,30.04,29.99,10,9,6,9,2,13,0.00,7,,141
2012-10-28,61,55,49,51,46,40,96,71,46,30.00,29.93,29.82,10,10,10,14,5,18,0.00,7,,33
2012-10-29,65,59,52,58,49,44,86,77,67,29.81,29.44,29.07,10,9,3,30,16,43,0.13,8,Rain,24
2012-10-30,65,58,51,56,47,44,83,68,52,29.49,29.37,29.16,10,10,10,24,10,37,0.02,6,Rain,141
2012-10-31,54,49,44,48,40,36,92,74,56,29.55,29.50,29.42,10,10,7,20,9,37,0.02,7,Rain,168